sensor_id;sensor_type;location;lat;lon;timestamp;P1;durP1;ratioP1;P2;durP2;ratioP2
19802;SDS011;66074;50.764;6.090;2023-04-27T00:01:10;9.57;;;4.30;;
19802;SDS011;66074;50.764;6.090;2023-04-27T00:03:36;6.30;;;3.72;;
19802;SDS011;66074;50.764;6.090;2023-04-27T00:06:02;5.35;;;3.90;;
19802;SDS011;66074;50.764;6.090;2023-04-27T00:08:28;4.15;;;3.13;;
19802;SDS011;66074;50.764;6.090;2023-04-27T00:10:54;4.50;;;3.58;;
19802;SDS011;66074;50.764;6.090;2023-04-27T00:13:20;5.35;;;3.30;;
19802;SDS011;66074;50.764;6.090;2023-04-27T00:15:46;9.55;;;4.15;;
19802;SDS011;66074;50.764;6.090;2023-04-27T00:18:12;7.07;;;3.72;;
19802;SDS011;66074;50.764;6.090;2023-04-27T00:20:38;9.02;;;4.03;;
19802;SDS011;66074;50.764;6.090;2023-04-27T00:23:04;5.55;;;3.90;;
19802;SDS011;66074;50.764;6.090;2023-04-27T00:25:30;6.60;;;3.63;;
19802;SDS011;66074;50.764;6.090;2023-04-27T00:27:56;5.07;;;3.60;;
19802;SDS011;66074;50.764;6.090;2023-04-27T00:30:21;6.47;;;3.55;;
19802;SDS011;66074;50.764;6.090;2023-04-27T00:32:47;5.88;;;3.92;;
19802;SDS011;66074;50.764;6.090;2023-04-27T00:35:12;8.10;;;4.47;;
19802;SDS011;66074;50.764;6.090;2023-04-27T00:37:38;7.32;;;3.78;;
19802;SDS011;66074;50.764;6.090;2023-04-27T00:40:04;5.35;;;3.97;;
19802;SDS011;66074;50.764;6.090;2023-04-27T00:42:33;6.85;;;3.90;;
19802;SDS011;66074;50.764;6.090;2023-04-27T00:44:59;5.35;;;3.53;;
19802;SDS011;66074;50.764;6.090;2023-04-27T00:47:25;7.88;;;4.30;;
19802;SDS011;66074;50.764;6.090;2023-04-27T00:49:52;6.05;;;3.42;;
19802;SDS011;66074;50.764;6.090;2023-04-27T00:52:18;5.70;;;3.88;;
19802;SDS011;66074;50.764;6.090;2023-04-27T00:54:43;4.80;;;3.40;;
19802;SDS011;66074;50.764;6.090;2023-04-27T00:57:09;7.97;;;3.83;;
19802;SDS011;66074;50.764;6.090;2023-04-27T00:59:35;6.32;;;3.28;;
19802;SDS011;66074;50.764;6.090;2023-04-27T01:02:00;5.40;;;3.83;;
19802;SDS011;66074;50.764;6.090;2023-04-27T01:04:26;6.18;;;3.80;;
19802;SDS011;66074;50.764;6.090;2023-04-27T01:06:53;6.50;;;3.47;;
19802;SDS011;66074;50.764;6.090;2023-04-27T01:09:18;5.47;;;3.20;;
19802;SDS011;66074;50.764;6.090;2023-04-27T01:11:45;4.55;;;3.63;;
19802;SDS011;66074;50.764;6.090;2023-04-27T01:14:11;6.63;;;3.67;;
19802;SDS011;66074;50.764;6.090;2023-04-27T01:16:36;6.68;;;3.50;;
19802;SDS011;66074;50.764;6.090;2023-04-27T01:19:03;9.32;;;3.75;;
19802;SDS011;66074;50.764;6.090;2023-04-27T01:21:29;5.38;;;3.70;;
19802;SDS011;66074;50.764;6.090;2023-04-27T01:23:55;6.50;;;3.42;;
19802;SDS011;66074;50.764;6.090;2023-04-27T01:26:20;6.35;;;3.45;;
19802;SDS011;66074;50.764;6.090;2023-04-27T01:28:46;4.53;;;3.63;;
19802;SDS011;66074;50.764;6.090;2023-04-27T01:31:12;4.78;;;3.50;;
19802;SDS011;66074;50.764;6.090;2023-04-27T01:33:38;6.25;;;3.55;;
19802;SDS011;66074;50.764;6.090;2023-04-27T01:36:05;5.30;;;3.50;;
19802;SDS011;66074;50.764;6.090;2023-04-27T01:38:32;8.38;;;3.15;;
19802;SDS011;66074;50.764;6.090;2023-04-27T01:40:58;5.22;;;3.28;;
19802;SDS011;66074;50.764;6.090;2023-04-27T01:43:30;4.30;;;3.08;;
19802;SDS011;66074;50.764;6.090;2023-04-27T01:46:03;5.97;;;3.63;;
19802;SDS011;66074;50.764;6.090;2023-04-27T01:48:33;7.25;;;3.75;;
19802;SDS011;66074;50.764;6.090;2023-04-27T01:50:59;3.70;;;3.30;;
19802;SDS011;66074;50.764;6.090;2023-04-27T01:53:25;5.07;;;3.45;;
19802;SDS011;66074;50.764;6.090;2023-04-27T01:55:51;6.22;;;3.47;;
19802;SDS011;66074;50.764;6.090;2023-04-27T01:58:16;6.85;;;3.40;;
19802;SDS011;66074;50.764;6.090;2023-04-27T02:00:42;6.40;;;3.92;;
19802;SDS011;66074;50.764;6.090;2023-04-27T02:03:08;6.63;;;3.45;;
19802;SDS011;66074;50.764;6.090;2023-04-27T02:05:33;4.65;;;3.38;;
19802;SDS011;66074;50.764;6.090;2023-04-27T02:07:59;7.97;;;3.75;;
19802;SDS011;66074;50.764;6.090;2023-04-27T02:10:25;7.95;;;3.58;;
19802;SDS011;66074;50.764;6.090;2023-04-27T02:12:51;6.55;;;3.92;;
19802;SDS011;66074;50.764;6.090;2023-04-27T02:15:16;4.28;;;3.72;;
19802;SDS011;66074;50.764;6.090;2023-04-27T02:17:42;8.02;;;4.07;;
19802;SDS011;66074;50.764;6.090;2023-04-27T02:20:08;7.90;;;3.40;;
19802;SDS011;66074;50.764;6.090;2023-04-27T02:22:35;7.15;;;3.65;;
19802;SDS011;66074;50.764;6.090;2023-04-27T02:25:01;4.93;;;3.40;;
19802;SDS011;66074;50.764;6.090;2023-04-27T02:27:27;8.48;;;4.10;;
19802;SDS011;66074;50.764;6.090;2023-04-27T02:29:53;4.90;;;3.67;;
19802;SDS011;66074;50.764;6.090;2023-04-27T02:32:18;7.97;;;3.95;;
19802;SDS011;66074;50.764;6.090;2023-04-27T02:34:44;5.28;;;3.85;;
19802;SDS011;66074;50.764;6.090;2023-04-27T02:37:09;6.00;;;4.25;;
19802;SDS011;66074;50.764;6.090;2023-04-27T02:39:35;6.18;;;3.20;;
19802;SDS011;66074;50.764;6.090;2023-04-27T02:42:00;4.50;;;3.80;;
19802;SDS011;66074;50.764;6.090;2023-04-27T02:44:27;7.88;;;5.43;;
19802;SDS011;66074;50.764;6.090;2023-04-27T02:46:53;6.63;;;3.97;;
19802;SDS011;66074;50.764;6.090;2023-04-27T02:49:19;7.18;;;3.88;;
19802;SDS011;66074;50.764;6.090;2023-04-27T02:51:44;6.78;;;3.88;;
19802;SDS011;66074;50.764;6.090;2023-04-27T02:54:10;5.78;;;4.40;;
19802;SDS011;66074;50.764;6.090;2023-04-27T02:56:36;6.10;;;3.83;;
19802;SDS011;66074;50.764;6.090;2023-04-27T02:59:01;6.00;;;3.97;;
19802;SDS011;66074;50.764;6.090;2023-04-27T03:01:28;7.93;;;3.92;;
19802;SDS011;66074;50.764;6.090;2023-04-27T03:03:53;9.32;;;3.97;;
19802;SDS011;66074;50.764;6.090;2023-04-27T03:06:19;6.22;;;4.03;;
19802;SDS011;66074;50.764;6.090;2023-04-27T03:08:44;7.57;;;4.30;;
19802;SDS011;66074;50.764;6.090;2023-04-27T03:11:10;6.43;;;4.72;;
19802;SDS011;66074;50.764;6.090;2023-04-27T03:13:36;8.50;;;5.18;;
19802;SDS011;66074;50.764;6.090;2023-04-27T03:16:08;7.25;;;4.38;;
19802;SDS011;66074;50.764;6.090;2023-04-27T03:18:37;10.82;;;4.70;;
19802;SDS011;66074;50.764;6.090;2023-04-27T03:21:04;5.95;;;4.25;;
19802;SDS011;66074;50.764;6.090;2023-04-27T03:23:33;5.65;;;4.70;;
19802;SDS011;66074;50.764;6.090;2023-04-27T03:25:59;5.10;;;4.38;;
19802;SDS011;66074;50.764;6.090;2023-04-27T03:28:25;6.32;;;4.72;;
19802;SDS011;66074;50.764;6.090;2023-04-27T03:30:51;6.90;;;4.13;;
19802;SDS011;66074;50.764;6.090;2023-04-27T03:33:16;8.50;;;4.35;;
19802;SDS011;66074;50.764;6.090;2023-04-27T03:35:42;9.75;;;5.07;;
19802;SDS011;66074;50.764;6.090;2023-04-27T03:38:08;7.25;;;4.25;;
19802;SDS011;66074;50.764;6.090;2023-04-27T03:40:34;10.05;;;4.65;;
19802;SDS011;66074;50.764;6.090;2023-04-27T03:42:59;8.82;;;4.25;;
19802;SDS011;66074;50.764;6.090;2023-04-27T03:45:25;8.02;;;4.72;;
19802;SDS011;66074;50.764;6.090;2023-04-27T03:47:51;7.95;;;4.80;;
19802;SDS011;66074;50.764;6.090;2023-04-27T03:50:16;8.43;;;4.95;;
19802;SDS011;66074;50.764;6.090;2023-04-27T03:52:42;6.05;;;4.68;;
19802;SDS011;66074;50.764;6.090;2023-04-27T03:55:08;6.63;;;4.57;;
19802;SDS011;66074;50.764;6.090;2023-04-27T03:57:33;6.47;;;5.33;;
19802;SDS011;66074;50.764;6.090;2023-04-27T03:59:59;9.07;;;5.35;;
19802;SDS011;66074;50.764;6.090;2023-04-27T04:02:25;7.38;;;5.18;;
19802;SDS011;66074;50.764;6.090;2023-04-27T04:04:50;7.68;;;4.57;;
19802;SDS011;66074;50.764;6.090;2023-04-27T04:07:16;10.45;;;4.55;;
19802;SDS011;66074;50.764;6.090;2023-04-27T04:09:43;12.52;;;4.88;;
19802;SDS011;66074;50.764;6.090;2023-04-27T04:12:08;11.68;;;4.55;;
19802;SDS011;66074;50.764;6.090;2023-04-27T04:14:34;8.75;;;5.25;;
19802;SDS011;66074;50.764;6.090;2023-04-27T04:16:59;10.23;;;5.45;;
19802;SDS011;66074;50.764;6.090;2023-04-27T04:19:25;8.73;;;5.90;;
19802;SDS011;66074;50.764;6.090;2023-04-27T04:21:50;8.43;;;5.15;;
19802;SDS011;66074;50.764;6.090;2023-04-27T04:24:16;9.77;;;5.50;;
19802;SDS011;66074;50.764;6.090;2023-04-27T04:26:42;27.40;;;8.35;;
19802;SDS011;66074;50.764;6.090;2023-04-27T04:29:08;10.95;;;5.30;;
19802;SDS011;66074;50.764;6.090;2023-04-27T04:31:34;7.22;;;5.50;;
19802;SDS011;66074;50.764;6.090;2023-04-27T04:33:59;10.75;;;5.38;;
19802;SDS011;66074;50.764;6.090;2023-04-27T04:36:25;12.88;;;6.50;;
19802;SDS011;66074;50.764;6.090;2023-04-27T04:38:51;8.10;;;6.03;;
19802;SDS011;66074;50.764;6.090;2023-04-27T04:41:18;17.45;;;8.88;;
19802;SDS011;66074;50.764;6.090;2023-04-27T04:43:44;13.25;;;9.38;;
19802;SDS011;66074;50.764;6.090;2023-04-27T04:46:12;17.27;;;11.93;;
19802;SDS011;66074;50.764;6.090;2023-04-27T04:48:37;27.88;;;13.43;;
19802;SDS011;66074;50.764;6.090;2023-04-27T04:51:03;15.93;;;10.40;;
19802;SDS011;66074;50.764;6.090;2023-04-27T04:53:31;12.75;;;10.13;;
19802;SDS011;66074;50.764;6.090;2023-04-27T04:55:56;20.58;;;11.45;;
19802;SDS011;66074;50.764;6.090;2023-04-27T04:58:31;24.92;;;11.90;;
19802;SDS011;66074;50.764;6.090;2023-04-27T05:00:57;13.73;;;9.48;;
19802;SDS011;66074;50.764;6.090;2023-04-27T05:03:22;13.75;;;9.32;;
19802;SDS011;66074;50.764;6.090;2023-04-27T05:05:48;13.15;;;9.38;;
19802;SDS011;66074;50.764;6.090;2023-04-27T05:08:13;14.55;;;7.70;;
19802;SDS011;66074;50.764;6.090;2023-04-27T05:10:41;16.40;;;9.02;;
19802;SDS011;66074;50.764;6.090;2023-04-27T05:13:06;18.50;;;8.80;;
19802;SDS011;66074;50.764;6.090;2023-04-27T05:15:32;15.32;;;9.57;;
19802;SDS011;66074;50.764;6.090;2023-04-27T05:17:57;16.55;;;9.90;;
19802;SDS011;66074;50.764;6.090;2023-04-27T05:20:23;16.75;;;9.13;;
19802;SDS011;66074;50.764;6.090;2023-04-27T05:22:48;14.13;;;9.15;;
19802;SDS011;66074;50.764;6.090;2023-04-27T05:25:14;15.70;;;9.57;;
19802;SDS011;66074;50.764;6.090;2023-04-27T05:27:40;17.00;;;12.20;;
19802;SDS011;66074;50.764;6.090;2023-04-27T05:30:05;14.07;;;9.90;;
19802;SDS011;66074;50.764;6.090;2023-04-27T05:32:31;11.60;;;8.10;;
19802;SDS011;66074;50.764;6.090;2023-04-27T05:34:57;9.52;;;8.38;;
19802;SDS011;66074;50.764;6.090;2023-04-27T05:37:23;13.30;;;8.63;;
19802;SDS011;66074;50.764;6.090;2023-04-27T05:39:48;13.30;;;7.93;;
19802;SDS011;66074;50.764;6.090;2023-04-27T05:42:14;13.63;;;7.90;;
19802;SDS011;66074;50.764;6.090;2023-04-27T05:44:40;15.27;;;8.38;;
19802;SDS011;66074;50.764;6.090;2023-04-27T05:47:07;15.95;;;7.95;;
19802;SDS011;66074;50.764;6.090;2023-04-27T05:49:32;16.05;;;8.38;;
19802;SDS011;66074;50.764;6.090;2023-04-27T05:51:58;17.95;;;10.57;;
19802;SDS011;66074;50.764;6.090;2023-04-27T05:54:24;11.70;;;8.32;;
19802;SDS011;66074;50.764;6.090;2023-04-27T05:56:51;14.88;;;8.23;;
19802;SDS011;66074;50.764;6.090;2023-04-27T05:59:17;16.08;;;8.52;;
19802;SDS011;66074;50.764;6.090;2023-04-27T06:01:42;13.50;;;8.38;;
19802;SDS011;66074;50.764;6.090;2023-04-27T06:04:08;11.43;;;7.75;;
19802;SDS011;66074;50.764;6.090;2023-04-27T06:06:34;10.77;;;7.90;;
19802;SDS011;66074;50.764;6.090;2023-04-27T06:09:00;16.73;;;7.65;;
19802;SDS011;66074;50.764;6.090;2023-04-27T06:11:25;19.77;;;9.20;;
19802;SDS011;66074;50.764;6.090;2023-04-27T06:13:51;18.45;;;8.82;;
19802;SDS011;66074;50.764;6.090;2023-04-27T06:16:17;20.10;;;9.40;;
19802;SDS011;66074;50.764;6.090;2023-04-27T06:18:42;21.95;;;9.57;;
19802;SDS011;66074;50.764;6.090;2023-04-27T06:21:08;14.73;;;8.98;;
19802;SDS011;66074;50.764;6.090;2023-04-27T06:23:34;17.45;;;8.27;;
19802;SDS011;66074;50.764;6.090;2023-04-27T06:25:59;11.65;;;7.50;;
19802;SDS011;66074;50.764;6.090;2023-04-27T06:28:25;12.00;;;7.10;;
19802;SDS011;66074;50.764;6.090;2023-04-27T06:30:51;15.23;;;8.45;;
19802;SDS011;66074;50.764;6.090;2023-04-27T06:33:17;14.02;;;7.28;;
19802;SDS011;66074;50.764;6.090;2023-04-27T06:35:43;11.82;;;6.13;;
19802;SDS011;66074;50.764;6.090;2023-04-27T06:38:09;9.63;;;6.75;;
19802;SDS011;66074;50.764;6.090;2023-04-27T06:40:35;10.38;;;6.40;;
19802;SDS011;66074;50.764;6.090;2023-04-27T06:43:01;20.70;;;8.70;;
19802;SDS011;66074;50.764;6.090;2023-04-27T06:45:27;11.55;;;6.82;;
19802;SDS011;66074;50.764;6.090;2023-04-27T06:47:52;12.30;;;6.50;;
19802;SDS011;66074;50.764;6.090;2023-04-27T06:50:18;11.48;;;6.47;;
19802;SDS011;66074;50.764;6.090;2023-04-27T06:52:44;9.45;;;6.80;;
19802;SDS011;66074;50.764;6.090;2023-04-27T06:55:09;9.70;;;6.63;;
19802;SDS011;66074;50.764;6.090;2023-04-27T06:57:35;9.82;;;6.53;;
19802;SDS011;66074;50.764;6.090;2023-04-27T07:00:01;8.75;;;7.35;;
19802;SDS011;66074;50.764;6.090;2023-04-27T07:02:27;11.05;;;7.20;;
19802;SDS011;66074;50.764;6.090;2023-04-27T07:04:53;12.18;;;8.80;;
19802;SDS011;66074;50.764;6.090;2023-04-27T07:07:19;24.15;;;8.30;;
19802;SDS011;66074;50.764;6.090;2023-04-27T07:09:45;10.52;;;7.38;;
19802;SDS011;66074;50.764;6.090;2023-04-27T07:12:10;11.32;;;7.13;;
19802;SDS011;66074;50.764;6.090;2023-04-27T07:14:36;12.88;;;8.70;;
19802;SDS011;66074;50.764;6.090;2023-04-27T07:17:01;13.10;;;10.07;;
19802;SDS011;66074;50.764;6.090;2023-04-27T07:19:27;10.93;;;7.15;;
19802;SDS011;66074;50.764;6.090;2023-04-27T07:21:53;18.77;;;9.18;;
19802;SDS011;66074;50.764;6.090;2023-04-27T07:24:18;10.57;;;7.05;;
19802;SDS011;66074;50.764;6.090;2023-04-27T07:26:44;7.90;;;7.00;;
19802;SDS011;66074;50.764;6.090;2023-04-27T07:29:10;8.65;;;6.85;;
19802;SDS011;66074;50.764;6.090;2023-04-27T07:31:37;7.97;;;6.63;;
19802;SDS011;66074;50.764;6.090;2023-04-27T07:34:03;14.68;;;6.60;;
19802;SDS011;66074;50.764;6.090;2023-04-27T07:36:28;9.07;;;6.57;;
19802;SDS011;66074;50.764;6.090;2023-04-27T07:38:55;9.88;;;7.32;;
19802;SDS011;66074;50.764;6.090;2023-04-27T07:41:22;7.97;;;6.50;;
19802;SDS011;66074;50.764;6.090;2023-04-27T07:43:48;8.40;;;6.63;;
19802;SDS011;66074;50.764;6.090;2023-04-27T07:46:15;7.57;;;5.78;;
19802;SDS011;66074;50.764;6.090;2023-04-27T07:48:42;11.32;;;7.10;;
19802;SDS011;66074;50.764;6.090;2023-04-27T07:51:08;6.95;;;6.13;;
19802;SDS011;66074;50.764;6.090;2023-04-27T07:53:34;9.48;;;7.50;;
19802;SDS011;66074;50.764;6.090;2023-04-27T07:56:00;8.10;;;7.28;;
19802;SDS011;66074;50.764;6.090;2023-04-27T07:58:26;10.15;;;8.13;;
19802;SDS011;66074;50.764;6.090;2023-04-27T08:00:52;10.65;;;7.70;;
19802;SDS011;66074;50.764;6.090;2023-04-27T08:03:18;10.18;;;7.78;;
19802;SDS011;66074;50.764;6.090;2023-04-27T08:05:43;10.73;;;8.98;;
19802;SDS011;66074;50.764;6.090;2023-04-27T08:08:09;9.43;;;8.18;;
19802;SDS011;66074;50.764;6.090;2023-04-27T08:10:35;13.80;;;8.27;;
19802;SDS011;66074;50.764;6.090;2023-04-27T08:13:02;13.07;;;8.38;;
19802;SDS011;66074;50.764;6.090;2023-04-27T08:15:27;10.57;;;8.73;;
19802;SDS011;66074;50.764;6.090;2023-04-27T08:17:53;15.90;;;9.20;;
19802;SDS011;66074;50.764;6.090;2023-04-27T08:20:19;9.70;;;8.15;;
19802;SDS011;66074;50.764;6.090;2023-04-27T08:22:45;9.75;;;7.72;;
19802;SDS011;66074;50.764;6.090;2023-04-27T08:25:10;9.77;;;8.60;;
19802;SDS011;66074;50.764;6.090;2023-04-27T08:27:39;9.82;;;8.82;;
19802;SDS011;66074;50.764;6.090;2023-04-27T08:30:05;10.13;;;7.85;;
19802;SDS011;66074;50.764;6.090;2023-04-27T08:32:31;8.77;;;7.85;;
19802;SDS011;66074;50.764;6.090;2023-04-27T08:34:56;24.45;;;11.02;;
19802;SDS011;66074;50.764;6.090;2023-04-27T08:37:22;10.93;;;8.35;;
19802;SDS011;66074;50.764;6.090;2023-04-27T08:39:48;11.32;;;9.25;;
19802;SDS011;66074;50.764;6.090;2023-04-27T08:42:13;10.13;;;7.55;;
19802;SDS011;66074;50.764;6.090;2023-04-27T08:44:40;10.70;;;8.82;;
19802;SDS011;66074;50.764;6.090;2023-04-27T08:47:07;9.75;;;7.68;;
19802;SDS011;66074;50.764;6.090;2023-04-27T08:49:33;8.13;;;7.32;;
19802;SDS011;66074;50.764;6.090;2023-04-27T08:52:00;13.77;;;8.73;;
19802;SDS011;66074;50.764;6.090;2023-04-27T08:54:26;14.60;;;7.38;;
19802;SDS011;66074;50.764;6.090;2023-04-27T08:56:51;10.48;;;7.40;;
19802;SDS011;66074;50.764;6.090;2023-04-27T08:59:17;11.50;;;7.18;;
19802;SDS011;66074;50.764;6.090;2023-04-27T09:01:43;8.05;;;7.15;;
19802;SDS011;66074;50.764;6.090;2023-04-27T09:04:10;8.23;;;7.25;;
19802;SDS011;66074;50.764;6.090;2023-04-27T09:06:36;7.47;;;6.78;;
19802;SDS011;66074;50.764;6.090;2023-04-27T09:09:02;8.35;;;7.20;;
19802;SDS011;66074;50.764;6.090;2023-04-27T09:14:00;8.13;;;7.32;;
19802;SDS011;66074;50.764;6.090;2023-04-27T09:16:28;10.10;;;8.13;;
19802;SDS011;66074;50.764;6.090;2023-04-27T09:18:55;8.35;;;6.90;;
19802;SDS011;66074;50.764;6.090;2023-04-27T09:21:26;10.82;;;7.45;;
19802;SDS011;66074;50.764;6.090;2023-04-27T09:23:52;9.50;;;7.38;;
19802;SDS011;66074;50.764;6.090;2023-04-27T09:26:20;9.80;;;7.07;;
19802;SDS011;66074;50.764;6.090;2023-04-27T09:28:48;8.75;;;6.88;;
19802;SDS011;66074;50.764;6.090;2023-04-27T09:31:15;8.60;;;7.28;;
19802;SDS011;66074;50.764;6.090;2023-04-27T09:33:42;8.98;;;7.80;;
19802;SDS011;66074;50.764;6.090;2023-04-27T09:36:08;9.57;;;7.68;;
19802;SDS011;66074;50.764;6.090;2023-04-27T09:38:34;9.45;;;7.75;;
19802;SDS011;66074;50.764;6.090;2023-04-27T09:40:59;10.63;;;7.63;;
19802;SDS011;66074;50.764;6.090;2023-04-27T09:43:25;10.10;;;8.18;;
19802;SDS011;66074;50.764;6.090;2023-04-27T09:45:53;8.63;;;7.68;;
19802;SDS011;66074;50.764;6.090;2023-04-27T09:48:20;10.43;;;7.70;;
19802;SDS011;66074;50.764;6.090;2023-04-27T09:50:47;9.20;;;7.60;;
19802;SDS011;66074;50.764;6.090;2023-04-27T09:53:16;9.20;;;8.30;;
19802;SDS011;66074;50.764;6.090;2023-04-27T09:58:39;11.17;;;8.73;;
19802;SDS011;66074;50.764;6.090;2023-04-27T10:09:39;7.60;;;6.80;;
19802;SDS011;66074;50.764;6.090;2023-04-27T10:12:27;9.43;;;8.35;;
19802;SDS011;66074;50.764;6.090;2023-04-27T10:15:10;9.48;;;8.57;;
19802;SDS011;66074;50.764;6.090;2023-04-27T10:17:46;10.88;;;8.63;;
19802;SDS011;66074;50.764;6.090;2023-04-27T10:20:13;10.48;;;7.57;;
19802;SDS011;66074;50.764;6.090;2023-04-27T10:22:43;9.52;;;8.48;;
19802;SDS011;66074;50.764;6.090;2023-04-27T10:25:18;9.73;;;8.70;;
19802;SDS011;66074;50.764;6.090;2023-04-27T10:27:49;10.25;;;8.57;;
19802;SDS011;66074;50.764;6.090;2023-04-27T10:30:19;9.43;;;8.45;;
19802;SDS011;66074;50.764;6.090;2023-04-27T10:32:50;11.00;;;8.30;;
19802;SDS011;66074;50.764;6.090;2023-04-27T10:35:20;9.30;;;8.40;;
19802;SDS011;66074;50.764;6.090;2023-04-27T10:37:47;10.45;;;7.95;;
19802;SDS011;66074;50.764;6.090;2023-04-27T10:40:13;12.07;;;8.10;;
19802;SDS011;66074;50.764;6.090;2023-04-27T10:42:41;10.18;;;8.90;;
19802;SDS011;66074;50.764;6.090;2023-04-27T10:45:13;9.75;;;8.82;;
19802;SDS011;66074;50.764;6.090;2023-04-27T10:47:42;9.57;;;8.38;;
19802;SDS011;66074;50.764;6.090;2023-04-27T10:50:10;11.82;;;8.30;;
19802;SDS011;66074;50.764;6.090;2023-04-27T10:52:44;11.43;;;8.48;;
19802;SDS011;66074;50.764;6.090;2023-04-27T10:55:19;9.85;;;8.75;;
19802;SDS011;66074;50.764;6.090;2023-04-27T10:57:52;12.07;;;9.63;;
19802;SDS011;66074;50.764;6.090;2023-04-27T11:02:55;9.15;;;8.25;;
19802;SDS011;66074;50.764;6.090;2023-04-27T11:05:25;28.73;;;19.80;;
19802;SDS011;66074;50.764;6.090;2023-04-27T11:08:04;11.95;;;9.45;;
19802;SDS011;66074;50.764;6.090;2023-04-27T11:10:30;9.52;;;8.57;;
19802;SDS011;66074;50.764;6.090;2023-04-27T11:12:57;12.25;;;9.07;;
19802;SDS011;66074;50.764;6.090;2023-04-27T11:15:23;10.48;;;8.80;;
19802;SDS011;66074;50.764;6.090;2023-04-27T11:17:49;10.35;;;8.90;;
19802;SDS011;66074;50.764;6.090;2023-04-27T11:20:23;8.65;;;7.38;;
19802;SDS011;66074;50.764;6.090;2023-04-27T11:22:49;11.57;;;8.68;;
19802;SDS011;66074;50.764;6.090;2023-04-27T11:25:15;9.32;;;8.30;;
19802;SDS011;66074;50.764;6.090;2023-04-27T11:27:40;11.93;;;8.52;;
19802;SDS011;66074;50.764;6.090;2023-04-27T11:30:17;10.02;;;9.02;;
19802;SDS011;66074;50.764;6.090;2023-04-27T11:32:45;11.02;;;8.98;;
19802;SDS011;66074;50.764;6.090;2023-04-27T11:35:12;12.30;;;8.63;;
19802;SDS011;66074;50.764;6.090;2023-04-27T11:37:37;9.18;;;8.23;;
19802;SDS011;66074;50.764;6.090;2023-04-27T11:40:03;12.20;;;8.48;;
19802;SDS011;66074;50.764;6.090;2023-04-27T11:42:29;12.85;;;9.07;;
19802;SDS011;66074;50.764;6.090;2023-04-27T11:44:59;9.10;;;7.63;;
19802;SDS011;66074;50.764;6.090;2023-04-27T11:47:26;8.98;;;8.05;;
19802;SDS011;66074;50.764;6.090;2023-04-27T11:49:55;10.43;;;8.23;;
19802;SDS011;66074;50.764;6.090;2023-04-27T11:52:22;9.57;;;8.68;;
19802;SDS011;66074;50.764;6.090;2023-04-27T11:54:53;9.95;;;9.05;;
19802;SDS011;66074;50.764;6.090;2023-04-27T11:57:27;10.40;;;9.23;;
19802;SDS011;66074;50.764;6.090;2023-04-27T11:59:54;11.27;;;9.60;;
19802;SDS011;66074;50.764;6.090;2023-04-27T12:02:21;11.10;;;9.18;;
19802;SDS011;66074;50.764;6.090;2023-04-27T12:04:48;10.38;;;8.85;;
19802;SDS011;66074;50.764;6.090;2023-04-27T12:07:14;10.98;;;9.10;;
19802;SDS011;66074;50.764;6.090;2023-04-27T12:09:40;11.38;;;9.20;;
19802;SDS011;66074;50.764;6.090;2023-04-27T12:12:06;10.02;;;8.48;;
19802;SDS011;66074;50.764;6.090;2023-04-27T12:14:32;11.05;;;8.48;;
19802;SDS011;66074;50.764;6.090;2023-04-27T12:16:58;11.57;;;8.18;;
19802;SDS011;66074;50.764;6.090;2023-04-27T12:19:23;12.90;;;9.38;;
19802;SDS011;66074;50.764;6.090;2023-04-27T12:21:50;14.60;;;10.18;;
19802;SDS011;66074;50.764;6.090;2023-04-27T12:24:16;10.57;;;9.45;;
19802;SDS011;66074;50.764;6.090;2023-04-27T12:26:42;10.45;;;9.35;;
19802;SDS011;66074;50.764;6.090;2023-04-27T12:29:07;10.63;;;9.48;;
19802;SDS011;66074;50.764;6.090;2023-04-27T12:31:33;11.82;;;10.60;;
19802;SDS011;66074;50.764;6.090;2023-04-27T12:33:59;10.52;;;9.40;;
19802;SDS011;66074;50.764;6.090;2023-04-27T12:36:25;11.45;;;9.85;;
19802;SDS011;66074;50.764;6.090;2023-04-27T12:38:52;11.05;;;9.48;;
19802;SDS011;66074;50.764;6.090;2023-04-27T12:41:21;13.98;;;10.45;;
19802;SDS011;66074;50.764;6.090;2023-04-27T12:43:47;17.20;;;11.05;;
19802;SDS011;66074;50.764;6.090;2023-04-27T12:46:13;15.40;;;11.32;;
19802;SDS011;66074;50.764;6.090;2023-04-27T12:48:38;11.80;;;10.57;;
19802;SDS011;66074;50.764;6.090;2023-04-27T12:51:05;11.63;;;10.50;;
19802;SDS011;66074;50.764;6.090;2023-04-27T12:53:31;13.43;;;10.45;;
19802;SDS011;66074;50.764;6.090;2023-04-27T12:55:57;13.75;;;10.80;;
19802;SDS011;66074;50.764;6.090;2023-04-27T12:58:25;10.68;;;9.32;;
19802;SDS011;66074;50.764;6.090;2023-04-27T13:00:51;15.75;;;10.88;;
19802;SDS011;66074;50.764;6.090;2023-04-27T13:03:17;14.00;;;10.68;;
19802;SDS011;66074;50.764;6.090;2023-04-27T13:05:42;18.13;;;13.23;;
19802;SDS011;66074;50.764;6.090;2023-04-27T13:08:08;16.88;;;10.70;;
19802;SDS011;66074;50.764;6.090;2023-04-27T13:10:34;12.55;;;10.70;;
19802;SDS011;66074;50.764;6.090;2023-04-27T13:13:01;10.73;;;9.68;;
19802;SDS011;66074;50.764;6.090;2023-04-27T13:15:27;11.68;;;10.48;;
19802;SDS011;66074;50.764;6.090;2023-04-27T13:17:53;12.23;;;9.35;;
19802;SDS011;66074;50.764;6.090;2023-04-27T13:20:20;10.85;;;9.75;;
19802;SDS011;66074;50.764;6.090;2023-04-27T13:22:45;12.95;;;10.25;;
19802;SDS011;66074;50.764;6.090;2023-04-27T13:25:12;12.32;;;11.05;;
19802;SDS011;66074;50.764;6.090;2023-04-27T13:27:39;12.35;;;11.18;;
19802;SDS011;66074;50.764;6.090;2023-04-27T13:30:04;12.27;;;10.30;;
19802;SDS011;66074;50.764;6.090;2023-04-27T13:32:31;12.30;;;9.43;;
19802;SDS011;66074;50.764;6.090;2023-04-27T13:34:56;10.63;;;9.52;;
19802;SDS011;66074;50.764;6.090;2023-04-27T13:37:22;10.35;;;9.35;;
19802;SDS011;66074;50.764;6.090;2023-04-27T13:39:48;10.55;;;9.50;;
19802;SDS011;66074;50.764;6.090;2023-04-27T13:42:13;11.70;;;9.43;;
19802;SDS011;66074;50.764;6.090;2023-04-27T13:44:39;12.00;;;9.80;;
19802;SDS011;66074;50.764;6.090;2023-04-27T13:47:05;10.68;;;9.57;;
19802;SDS011;66074;50.764;6.090;2023-04-27T13:49:31;14.27;;;10.30;;
19802;SDS011;66074;50.764;6.090;2023-04-27T13:51:58;10.45;;;9.35;;
19802;SDS011;66074;50.764;6.090;2023-04-27T13:54:24;12.15;;;8.55;;
19802;SDS011;66074;50.764;6.090;2023-04-27T13:56:49;10.82;;;8.70;;
19802;SDS011;66074;50.764;6.090;2023-04-27T13:59:15;14.13;;;8.98;;
19802;SDS011;66074;50.764;6.090;2023-04-27T14:01:41;12.68;;;9.18;;
19802;SDS011;66074;50.764;6.090;2023-04-27T14:04:07;10.20;;;8.18;;
19802;SDS011;66074;50.764;6.090;2023-04-27T14:06:33;11.25;;;8.50;;
19802;SDS011;66074;50.764;6.090;2023-04-27T14:09:00;13.75;;;8.30;;
19802;SDS011;66074;50.764;6.090;2023-04-27T14:11:25;17.48;;;8.77;;
19802;SDS011;66074;50.764;6.090;2023-04-27T14:13:51;9.18;;;8.27;;
19802;SDS011;66074;50.764;6.090;2023-04-27T14:16:17;11.82;;;10.25;;
19802;SDS011;66074;50.764;6.090;2023-04-27T14:18:42;10.82;;;8.30;;
19802;SDS011;66074;50.764;6.090;2023-04-27T14:21:08;10.98;;;8.43;;
19802;SDS011;66074;50.764;6.090;2023-04-27T14:23:34;9.52;;;8.55;;
19802;SDS011;66074;50.764;6.090;2023-04-27T14:26:00;10.73;;;8.70;;
19802;SDS011;66074;50.764;6.090;2023-04-27T14:28:26;9.18;;;8.32;;
19802;SDS011;66074;50.764;6.090;2023-04-27T14:30:52;10.00;;;8.65;;
19802;SDS011;66074;50.764;6.090;2023-04-27T14:33:17;9.52;;;8.57;;
19802;SDS011;66074;50.764;6.090;2023-04-27T14:35:43;13.10;;;9.63;;
19802;SDS011;66074;50.764;6.090;2023-04-27T14:38:09;10.70;;;9.60;;
19802;SDS011;66074;50.764;6.090;2023-04-27T14:40:35;10.27;;;8.52;;
19802;SDS011;66074;50.764;6.090;2023-04-27T14:43:01;11.07;;;9.88;;
19802;SDS011;66074;50.764;6.090;2023-04-27T14:45:26;12.75;;;10.88;;
19802;SDS011;66074;50.764;6.090;2023-04-27T14:47:52;12.73;;;9.15;;
19802;SDS011;66074;50.764;6.090;2023-04-27T14:50:18;11.10;;;9.75;;
19802;SDS011;66074;50.764;6.090;2023-04-27T14:52:44;14.18;;;9.13;;